createdAt,value
2018-09-19T00:03:22.847Z,88.47
2018-09-19T00:18:27.022Z,90.18
2018-09-19T00:33:31.107Z,91.81
2018-09-19T00:48:35.261Z,91.24
2018-09-19T01:03:39.444Z,90.51
2018-09-19T01:18:43.670Z,90.71
2018-09-19T01:33:47.787Z,92.00
2018-09-19T01:48:52.034Z,91.87
2018-09-19T02:03:55.928Z,91.74
2018-09-19T02:19:03.833Z,92.24
2018-09-19T02:34:08.169Z,93.14
2018-09-19T02:49:14.576Z,94.79
2018-09-19T03:04:18.764Z,95.23
2018-09-19T03:19:24.965Z,96.38
2018-09-19T03:34:28.806Z,97.23
2018-09-19T03:49:32.669Z,98.89
2018-09-19T04:04:36.935Z,98.80
2018-09-19T04:19:41.377Z,100.00
2018-09-19T04:34:45.456Z,91.79
2018-09-19T04:49:49.564Z,83.30
2018-09-19T05:04:53.569Z,70.17
2018-09-19T05:19:57.866Z,63.55
2018-09-19T05:35:02.059Z,53.33
2018-09-19T05:50:09.779Z,50.67
2018-09-19T06:05:13.604Z,45.27
2018-09-19T06:20:17.398Z,47.37
2018-09-19T06:35:21.842Z,41.91
2018-09-19T06:50:25.663Z,45.55
2018-09-19T07:05:30.498Z,42.12
2018-09-19T07:20:34.318Z,41.25
2018-09-19T07:35:38.438Z,36.59
2018-09-19T07:50:42.237Z,33.79
2018-09-19T08:05:46.049Z,33.16
2018-09-19T08:20:49.897Z,33.00
2018-09-19T08:35:53.740Z,37.22
2018-09-19T08:50:57.583Z,35.92
2018-09-19T09:06:02.329Z,35.68
2018-09-19T09:21:06.716Z,36.85
2018-09-19T09:36:10.541Z,35.31
2018-09-19T09:51:14.378Z,37.81
2018-09-19T10:06:19.125Z,35.54
2018-09-19T10:21:22.971Z,35.87
2018-09-19T10:36:26.784Z,37.37
2018-09-19T10:51:30.669Z,37.14
2018-09-19T11:06:36.810Z,35.65
2018-09-19T11:21:40.643Z,35.20
2018-09-19T11:36:44.435Z,34.94
2018-09-19T11:51:48.209Z,36.22
2018-09-19T12:06:52.493Z,36.21
2018-09-19T12:21:56.274Z,36.17
2018-09-19T12:37:00.104Z,37.00
2018-09-19T12:52:04.378Z,37.43
2018-09-19T13:07:08.363Z,37.49
2018-09-19T13:22:12.225Z,39.08
2018-09-19T13:37:16.068Z,39.58
2018-09-19T13:52:19.875Z,41.31
2018-09-19T14:07:23.701Z,42.08
2018-09-19T14:22:28.420Z,42.17
2018-09-19T14:37:32.607Z,41.89
2018-09-19T14:52:36.926Z,42.26
2018-09-19T15:07:41.108Z,44.04
2018-09-19T15:22:45.977Z,45.33
2018-09-19T15:37:52.313Z,46.44
2018-09-19T15:52:58.345Z,49.18
2018-09-19T16:08:02.482Z,51.09
2018-09-19T16:23:06.814Z,54.30
2018-09-19T16:38:10.731Z,57.07
2018-09-19T16:53:15.129Z,57.02
2018-09-19T17:08:18.972Z,55.92
2018-09-19T17:23:23.111Z,56.31
2018-09-19T17:38:27.210Z,58.18
2018-09-19T17:53:33.760Z,59.87
2018-09-19T18:08:37.706Z,58.73
2018-09-19T18:23:43.311Z,56.67
2018-09-19T18:38:47.195Z,56.52
2018-09-19T18:53:51.467Z,59.29
2018-09-19T19:08:55.432Z,58.53
2018-09-19T19:23:59.284Z,62.66
2018-09-19T19:39:03.196Z,65.16
2018-09-19T19:54:07.440Z,66.81
2018-09-19T20:09:11.278Z,69.40
2018-09-19T20:24:46.035Z,71.35
2018-09-19T20:40:19.937Z,70.92
2018-09-19T20:55:49.457Z,71.62
2018-09-19T21:10:53.535Z,72.83
2018-09-19T21:25:58.592Z,76.27
2018-09-19T21:41:02.440Z,76.57
2018-09-19T21:56:37.051Z,78.66
2018-09-19T22:12:11.964Z,80.19
2018-09-19T22:27:46.648Z,80.50
2018-09-19T22:43:21.351Z,84.92
2018-09-19T22:58:55.769Z,87.15
2018-09-19T23:14:31.424Z,86.21
2018-09-19T23:30:05.650Z,89.46
2018-09-19T23:45:40.569Z,84.24
